createdAt,value
2022-09-07T00:00:40.668Z,0.00
2022-09-07T00:01:40.655Z,0.00
2022-09-07T00:02:40.713Z,0.00
2022-09-07T00:03:40.649Z,0.00
2022-09-07T00:04:40.690Z,0.00
2022-09-07T00:05:40.642Z,0.00
2022-09-07T00:06:40.637Z,0.00
2022-09-07T00:07:40.643Z,0.00
2022-09-07T00:08:40.628Z,0.00
2022-09-07T00:09:40.634Z,0.00
2022-09-07T00:10:40.622Z,0.00
2022-09-07T00:11:40.622Z,0.00
2022-09-07T00:12:40.614Z,0.00
2022-09-07T00:13:40.626Z,0.00
2022-09-07T00:14:40.610Z,0.00
2022-09-07T00:15:40.604Z,0.00
2022-09-07T00:16:40.670Z,0.00
2022-09-07T00:17:40.596Z,0.00
2022-09-07T00:18:45.606Z,0.00
2022-09-07T00:19:40.593Z,0.00
2022-09-07T00:20:40.581Z,0.00
2022-09-07T00:21:40.584Z,0.00
2022-09-07T00:22:40.576Z,0.00
2022-09-07T00:23:40.573Z,0.00
2022-09-07T00:24:40.568Z,0.00
2022-09-07T00:25:40.566Z,0.00
2022-09-07T00:26:40.561Z,0.00
2022-09-07T00:27:40.558Z,0.00
2022-09-07T00:28:40.559Z,0.00
2022-09-07T00:29:40.551Z,0.00
2022-09-07T00:30:40.550Z,0.00
2022-09-07T00:31:40.580Z,0.00
2022-09-07T00:32:40.540Z,0.00
2022-09-07T00:33:40.534Z,0.00
2022-09-07T00:34:40.528Z,0.00
2022-09-07T00:35:40.526Z,0.00
2022-09-07T00:36:40.521Z,0.00
2022-09-07T00:37:40.514Z,0.00
2022-09-07T00:38:40.513Z,0.00
2022-09-07T00:39:40.550Z,0.00
2022-09-07T00:40:40.506Z,0.00
2022-09-07T00:41:40.502Z,0.00
2022-09-07T00:42:40.500Z,0.00
2022-09-07T00:43:40.494Z,0.00
2022-09-07T00:44:40.490Z,0.00
2022-09-07T00:45:40.488Z,0.00
2022-09-07T00:46:40.521Z,0.00
2022-09-07T00:47:40.471Z,0.00
2022-09-07T00:48:40.472Z,0.00
2022-09-07T00:49:40.471Z,0.00
2022-09-07T00:50:40.465Z,0.00
2022-09-07T00:51:40.463Z,0.00
2022-09-07T00:52:40.457Z,0.00
2022-09-07T00:53:40.455Z,0.00
2022-09-07T00:54:40.447Z,0.00
2022-09-07T00:55:40.443Z,0.00
2022-09-07T00:56:40.444Z,0.00
2022-09-07T00:57:40.435Z,0.00
2022-09-07T00:58:40.429Z,0.00
2022-09-07T00:59:40.425Z,0.00
2022-09-07T01:00:40.421Z,0.00
2022-09-07T01:01:40.500Z,0.00
2022-09-07T01:02:40.560Z,0.00
2022-09-07T01:03:40.412Z,0.00
2022-09-07T01:04:40.408Z,0.00
2022-09-07T01:05:40.402Z,0.00
2022-09-07T01:06:40.397Z,0.00
2022-09-07T01:07:40.393Z,0.00
2022-09-07T01:08:40.387Z,0.00
2022-09-07T01:09:40.393Z,0.00
2022-09-07T01:10:40.380Z,0.00
2022-09-07T01:11:40.375Z,0.00
2022-09-07T01:12:40.371Z,0.00
2022-09-07T01:13:40.366Z,0.00
2022-09-07T01:14:40.364Z,0.00
2022-09-07T01:15:40.362Z,0.00
2022-09-07T01:16:40.352Z,0.00
2022-09-07T01:17:40.346Z,0.00
2022-09-07T01:18:40.343Z,0.00
2022-09-07T01:19:40.339Z,0.00
2022-09-07T01:20:40.341Z,0.00
2022-09-07T01:21:40.330Z,0.00
2022-09-07T01:22:40.325Z,0.00
2022-09-07T01:23:40.346Z,0.00
2022-09-07T01:24:40.318Z,0.00
2022-09-07T01:25:40.313Z,0.00
2022-09-07T01:26:40.314Z,0.00
2022-09-07T01:27:40.302Z,0.00
2022-09-07T01:28:40.299Z,0.00
2022-09-07T01:29:40.294Z,0.00
2022-09-07T01:30:40.289Z,0.00
2022-09-07T01:31:40.284Z,0.00
2022-09-07T01:32:40.279Z,0.00
2022-09-07T01:33:40.273Z,0.00
2022-09-07T01:34:40.269Z,0.00
2022-09-07T01:35:40.266Z,0.00
2022-09-07T01:36:40.261Z,0.00
2022-09-07T01:37:40.253Z,0.00
2022-09-07T01:38:40.251Z,0.00
2022-09-07T01:39:40.312Z,0.00
2022-09-07T01:40:40.243Z,0.00
2022-09-07T01:41:40.238Z,0.00
2022-09-07T01:42:40.231Z,0.00
2022-09-07T01:43:40.227Z,0.00
2022-09-07T01:44:40.223Z,0.00
2022-09-07T01:45:40.219Z,0.00
2022-09-07T01:46:40.265Z,0.00
2022-09-07T01:47:40.212Z,0.00
2022-09-07T01:48:40.203Z,0.00
2022-09-07T01:49:40.198Z,0.00
2022-09-07T01:50:40.194Z,0.00
2022-09-07T01:51:40.191Z,0.00
2022-09-07T01:52:40.189Z,0.00
2022-09-07T01:53:40.185Z,0.00
2022-09-07T01:54:40.178Z,0.00
2022-09-07T01:55:40.170Z,0.00
2022-09-07T01:56:40.171Z,0.00
2022-09-07T01:57:40.163Z,0.00
2022-09-07T01:58:40.157Z,0.00
2022-09-07T01:59:40.152Z,0.00
2022-09-07T02:00:40.148Z,0.00
2022-09-07T02:01:40.173Z,0.00
2022-09-07T02:02:40.205Z,0.00
2022-09-07T02:03:40.142Z,0.00
2022-09-07T02:04:40.133Z,0.00
2022-09-07T02:05:40.124Z,0.00
2022-09-07T02:06:40.117Z,0.00
2022-09-07T02:07:40.114Z,0.00
2022-09-07T02:08:40.107Z,0.00
2022-09-07T02:09:40.106Z,0.00
2022-09-07T02:10:40.098Z,0.00
2022-09-07T02:11:40.097Z,0.00
2022-09-07T02:12:40.094Z,0.00
2022-09-07T02:13:40.091Z,0.00
2022-09-07T02:14:40.079Z,0.00
2022-09-07T02:15:40.150Z,0.00
2022-09-07T02:16:40.069Z,0.00
2022-09-07T02:17:40.064Z,0.00
2022-09-07T02:18:40.058Z,0.00
2022-09-07T02:19:40.054Z,0.00
2022-09-07T02:20:40.050Z,0.00
2022-09-07T02:21:40.047Z,0.00
2022-09-07T02:22:40.040Z,0.00
2022-09-07T02:23:40.031Z,0.00
2022-09-07T02:24:40.029Z,0.00
2022-09-07T02:25:40.024Z,0.00
2022-09-07T02:26:40.019Z,0.00
2022-09-07T02:27:40.014Z,0.00
2022-09-07T02:28:40.021Z,0.00
2022-09-07T02:29:40.011Z,0.00
2022-09-07T02:30:40.050Z,0.00
2022-09-07T02:31:39.993Z,0.00
2022-09-07T02:32:39.990Z,0.00
2022-09-07T02:33:39.987Z,0.00
2022-09-07T02:34:39.981Z,0.00
2022-09-07T02:35:39.975Z,0.00
2022-09-07T02:36:39.969Z,0.00
2022-09-07T02:37:39.964Z,0.00
2022-09-07T02:38:39.958Z,0.00
2022-09-07T02:39:39.978Z,0.00
2022-09-07T02:40:39.948Z,0.00
2022-09-07T02:41:39.945Z,0.00
2022-09-07T02:42:39.935Z,0.00
2022-09-07T02:43:39.942Z,0.00
2022-09-07T02:44:39.931Z,0.00
2022-09-07T02:45:39.925Z,0.00
2022-09-07T02:46:39.965Z,0.00
2022-09-07T02:47:39.917Z,0.00
2022-09-07T02:48:39.910Z,0.00
2022-09-07T02:49:39.908Z,0.00
2022-09-07T02:50:39.902Z,0.00
2022-09-07T02:51:39.899Z,0.00
2022-09-07T02:52:39.891Z,0.00
2022-09-07T02:53:39.888Z,0.00
2022-09-07T02:54:39.878Z,0.00
2022-09-07T02:55:39.875Z,0.00
2022-09-07T02:56:39.864Z,0.00
2022-09-07T02:57:39.863Z,0.00
2022-09-07T02:58:39.859Z,0.00
2022-09-07T02:59:39.852Z,0.00
2022-09-07T03:00:39.848Z,0.00
2022-09-07T03:01:39.890Z,0.00
2022-09-07T03:02:39.891Z,0.00
2022-09-07T03:03:39.833Z,0.00
2022-09-07T03:04:39.825Z,0.00
2022-09-07T03:05:39.825Z,0.00
2022-09-07T03:06:39.817Z,0.00
2022-09-07T03:07:43.971Z,0.00
2022-09-07T03:08:39.806Z,0.00
2022-09-07T03:09:39.802Z,0.00
2022-09-07T03:10:39.796Z,0.00
2022-09-07T03:11:39.790Z,0.00
2022-09-07T03:12:39.789Z,0.00
2022-09-07T03:13:39.785Z,0.00
2022-09-07T03:14:39.772Z,0.00
2022-09-07T03:15:39.826Z,0.00
2022-09-07T03:16:39.766Z,0.00
2022-09-07T03:17:39.760Z,0.00
2022-09-07T03:18:39.770Z,0.00
2022-09-07T03:19:39.748Z,0.00
2022-09-07T03:20:39.755Z,0.00
2022-09-07T03:21:39.745Z,0.00
2022-09-07T03:22:39.734Z,0.00
2022-09-07T03:23:39.730Z,0.00
2022-09-07T03:24:39.726Z,0.00
2022-09-07T03:25:39.719Z,0.00
2022-09-07T03:26:39.717Z,0.00
2022-09-07T03:27:39.710Z,0.00
2022-09-07T03:28:39.704Z,0.00
2022-09-07T03:29:41.987Z,0.00
2022-09-07T03:30:39.743Z,0.00
2022-09-07T03:31:39.684Z,0.00
2022-09-07T03:32:39.679Z,0.00
2022-09-07T03:33:39.675Z,0.00
2022-09-07T03:34:39.668Z,0.00
2022-09-07T03:35:39.674Z,0.00
2022-09-07T03:36:39.660Z,0.00
2022-09-07T03:37:39.658Z,0.00
2022-09-07T03:38:39.648Z,0.00
2022-09-07T03:39:39.681Z,0.00
2022-09-07T03:40:39.638Z,0.00
2022-09-07T03:41:39.633Z,0.00
2022-09-07T03:42:39.629Z,0.00
2022-09-07T03:43:39.622Z,0.00
2022-09-07T03:44:39.618Z,0.00
2022-09-07T03:45:39.661Z,0.00
2022-09-07T03:46:39.605Z,0.00
2022-09-07T03:47:39.606Z,0.00
2022-09-07T03:48:39.603Z,0.00
2022-09-07T03:49:39.587Z,0.00
2022-09-07T03:50:39.586Z,0.00
2022-09-07T03:51:39.581Z,0.00
2022-09-07T03:52:39.583Z,0.00
2022-09-07T03:53:39.575Z,0.00
2022-09-07T03:54:39.922Z,0.00
2022-09-07T03:55:39.560Z,0.00
2022-09-07T03:56:39.553Z,0.00
2022-09-07T03:57:39.550Z,0.00
2022-09-07T03:58:39.545Z,0.00
2022-09-07T03:59:39.543Z,0.00
2022-09-07T04:00:39.537Z,0.00
2022-09-07T04:01:39.600Z,0.00
2022-09-07T04:02:39.561Z,0.00
2022-09-07T04:03:39.517Z,0.00
2022-09-07T04:04:39.510Z,0.00
2022-09-07T04:05:39.510Z,0.00
2022-09-07T04:06:39.499Z,0.00
2022-09-07T04:07:39.496Z,0.00
2022-09-07T04:08:39.488Z,0.00
2022-09-07T04:09:39.486Z,0.00
2022-09-07T04:10:39.474Z,0.00
2022-09-07T04:11:39.474Z,0.00
2022-09-07T04:12:39.467Z,0.00
2022-09-07T04:13:39.465Z,0.00
2022-09-07T04:14:39.455Z,0.00
2022-09-07T04:15:39.455Z,0.00
2022-09-07T04:16:39.523Z,0.00
2022-09-07T04:17:39.438Z,0.00
2022-09-07T04:18:39.447Z,5.63
2022-09-07T04:19:39.428Z,0.00
2022-09-07T04:20:39.422Z,0.00
2022-09-07T04:21:39.429Z,5.63
2022-09-07T04:22:39.410Z,5.63
2022-09-07T04:23:39.411Z,5.63
2022-09-07T04:24:39.402Z,5.63
2022-09-07T04:25:39.395Z,5.63
2022-09-07T04:26:39.388Z,5.63
2022-09-07T04:27:39.383Z,5.63
2022-09-07T04:28:39.377Z,5.63
2022-09-07T04:29:39.374Z,5.63
2022-09-07T04:30:39.466Z,5.63
2022-09-07T04:31:39.364Z,5.63
2022-09-07T04:32:39.358Z,11.25
2022-09-07T04:33:39.358Z,11.25
2022-09-07T04:34:39.342Z,11.25
2022-09-07T04:35:39.338Z,11.25
2022-09-07T04:36:39.334Z,11.25
2022-09-07T04:37:39.335Z,11.25
2022-09-07T04:38:39.321Z,16.88
2022-09-07T04:39:39.334Z,16.88
2022-09-07T04:40:39.309Z,16.88
2022-09-07T04:41:39.314Z,16.88
2022-09-07T04:42:39.297Z,16.88
2022-09-07T04:43:39.288Z,22.50
2022-09-07T04:44:39.288Z,22.50
2022-09-07T04:45:39.323Z,22.50
2022-09-07T04:46:39.276Z,22.50
2022-09-07T04:47:39.274Z,22.50
2022-09-07T04:48:39.267Z,28.13
2022-09-07T04:49:39.264Z,28.13
2022-09-07T04:50:39.252Z,28.13
2022-09-07T04:51:39.250Z,33.75
2022-09-07T04:52:39.240Z,33.75
2022-09-07T04:53:39.236Z,33.75
2022-09-07T04:54:39.229Z,39.38
2022-09-07T04:55:39.228Z,39.38
2022-09-07T04:56:39.217Z,39.38
2022-09-07T04:57:46.409Z,39.38
2022-09-07T04:59:43.203Z,45.00
2022-09-07T05:00:43.185Z,45.00
2022-09-07T05:01:43.237Z,45.00
2022-09-07T05:02:43.238Z,45.00
2022-09-07T05:03:43.169Z,45.00
2022-09-07T05:04:43.160Z,45.00
2022-09-07T05:05:43.154Z,50.63
2022-09-07T05:06:43.145Z,56.25
2022-09-07T05:07:43.143Z,61.88
2022-09-07T05:08:43.136Z,67.50
2022-09-07T05:09:43.129Z,67.50
2022-09-07T05:10:43.125Z,73.13
2022-09-07T05:11:43.121Z,78.75
2022-09-07T05:12:43.115Z,84.38
2022-09-07T05:13:43.108Z,84.38
2022-09-07T05:14:43.102Z,90.00
2022-09-07T05:15:43.100Z,90.00
2022-09-07T05:16:43.133Z,95.63
2022-09-07T05:17:43.084Z,101.25
2022-09-07T05:18:43.085Z,112.50
2022-09-07T05:19:43.075Z,118.13
2022-09-07T05:20:43.074Z,129.38
2022-09-07T05:21:43.064Z,135.00
2022-09-07T05:22:43.062Z,140.63
2022-09-07T05:23:43.055Z,151.88
2022-09-07T05:24:43.052Z,151.88
2022-09-07T05:25:43.037Z,157.50
2022-09-07T05:26:43.035Z,163.13
2022-09-07T05:27:43.029Z,168.75
2022-09-07T05:28:43.047Z,168.75
2022-09-07T05:31:43.012Z,168.75
2022-09-07T05:32:43.005Z,174.38
2022-09-07T05:34:42.995Z,225.00
2022-09-07T05:35:42.987Z,230.63
2022-09-07T05:36:42.983Z,241.88
2022-09-07T05:37:42.976Z,258.75
2022-09-07T05:38:42.980Z,281.25
2022-09-07T05:39:43.071Z,298.13
2022-09-07T05:40:42.961Z,348.75
2022-09-07T05:41:42.956Z,371.25
2022-09-07T05:42:42.955Z,376.88
2022-09-07T05:45:42.993Z,427.50
2022-09-07T05:46:42.935Z,461.25
2022-09-07T05:47:42.935Z,466.88
2022-09-07T05:48:42.924Z,450.00
2022-09-07T05:49:42.921Z,450.00
2022-09-07T05:50:42.911Z,472.50
2022-09-07T05:51:42.919Z,489.38
2022-09-07T05:52:42.908Z,500.63
2022-09-07T05:53:42.900Z,517.50
2022-09-07T05:54:42.897Z,534.38
2022-09-07T05:55:42.900Z,540.00
2022-09-07T05:56:42.897Z,551.25
2022-09-07T05:57:42.886Z,562.50
2022-09-07T05:58:42.879Z,551.25
2022-09-07T05:59:42.879Z,523.13
2022-09-07T06:00:42.872Z,523.13
2022-09-07T06:01:42.909Z,540.00
2022-09-07T06:02:42.990Z,579.38
2022-09-07T06:03:42.871Z,618.75
2022-09-07T06:04:42.868Z,646.88
2022-09-07T06:05:42.858Z,641.25
2022-09-07T06:06:47.874Z,607.50
2022-09-07T06:07:42.853Z,618.75
2022-09-07T06:08:42.848Z,652.50
2022-09-07T06:11:42.838Z,680.63
2022-09-07T06:12:45.564Z,663.75
2022-09-07T06:13:42.831Z,624.38
2022-09-07T06:14:42.827Z,686.25
2022-09-07T06:15:42.826Z,736.88
2022-09-07T06:16:43.003Z,365.63
2022-09-07T06:17:42.817Z,461.25
2022-09-07T06:18:42.814Z,658.13
2022-09-07T06:19:42.814Z,691.88
2022-09-07T06:20:42.809Z,703.13
2022-09-07T06:21:42.807Z,714.38
2022-09-07T06:22:42.805Z,748.13
2022-09-07T06:23:42.806Z,781.88
2022-09-07T06:24:42.803Z,815.63
2022-09-07T06:25:42.795Z,804.38
2022-09-07T06:26:42.794Z,793.13
2022-09-07T06:27:42.793Z,849.38
2022-09-07T06:28:42.792Z,911.25
2022-09-07T06:29:42.793Z,911.25
2022-09-07T06:30:42.788Z,849.38
2022-09-07T06:32:42.953Z,860.63
2022-09-07T06:33:42.779Z,849.38
2022-09-07T06:34:42.783Z,871.88
2022-09-07T06:35:42.785Z,911.25
2022-09-07T06:36:42.776Z,697.50
2022-09-07T06:37:42.786Z,495.00
2022-09-07T06:38:42.772Z,787.50
2022-09-07T06:39:42.796Z,821.25
2022-09-07T06:40:42.768Z,798.75
2022-09-07T06:42:42.765Z,804.38
2022-09-07T06:43:45.577Z,669.38
2022-09-07T06:44:42.763Z,922.50
2022-09-07T06:45:42.789Z,967.50
2022-09-07T06:47:12.692Z,922.50
2022-09-07T06:47:42.754Z,911.25
2022-09-07T06:48:44.471Z,849.38
2022-09-07T06:49:42.757Z,663.75
2022-09-07T06:50:42.762Z,630.00
2022-09-07T06:51:42.752Z,523.13
2022-09-07T06:53:44.498Z,562.50
2022-09-07T06:55:42.743Z,590.63
2022-09-07T06:56:42.745Z,759.38
2022-09-07T06:57:42.741Z,776.25
2022-09-07T06:58:42.737Z,866.25
2022-09-07T06:59:42.734Z,888.75
2022-09-07T07:00:42.774Z,928.13
2022-09-07T07:01:42.736Z,1035.00
2022-09-07T07:02:42.730Z,1029.38
2022-09-07T07:03:42.752Z,984.38
2022-09-07T07:04:42.737Z,1001.25
2022-09-07T07:05:42.726Z,978.75
2022-09-07T07:06:42.724Z,871.88
2022-09-07T07:07:42.723Z,905.63
2022-09-07T07:08:42.721Z,877.50
2022-09-07T07:09:42.724Z,990.00
2022-09-07T07:10:42.717Z,1023.75
2022-09-07T07:11:42.715Z,967.50
2022-09-07T07:13:03.721Z,838.13
2022-09-07T07:13:42.714Z,793.13
2022-09-07T07:14:45.121Z,742.50
2022-09-07T07:15:42.709Z,708.75
2022-09-07T07:16:42.754Z,646.88
2022-09-07T07:17:43.504Z,618.75
2022-09-07T07:18:42.701Z,461.25
2022-09-07T07:19:42.702Z,382.50
2022-09-07T07:20:42.703Z,331.88
2022-09-07T07:22:07.916Z,281.25
2022-09-07T07:22:46.637Z,264.38
2022-09-07T07:23:42.696Z,264.38
2022-09-07T07:24:42.693Z,264.38
2022-09-07T07:25:42.687Z,258.75
2022-09-07T07:26:42.691Z,253.13
2022-09-07T07:27:42.684Z,253.13
2022-09-07T07:29:42.682Z,247.50
2022-09-07T07:30:42.703Z,247.50
2022-09-07T07:31:42.680Z,247.50
2022-09-07T07:32:42.696Z,241.88
2022-09-07T07:33:42.826Z,236.25
2022-09-07T07:34:42.666Z,236.25
2022-09-07T07:35:42.663Z,230.63
2022-09-07T07:36:42.658Z,230.63
2022-09-07T07:37:42.655Z,236.25
2022-09-07T07:40:43.004Z,236.25
2022-09-07T07:42:01.661Z,241.88
2022-09-07T07:42:42.639Z,241.88
2022-09-07T07:43:42.638Z,236.25
2022-09-07T07:44:42.636Z,225.00
2022-09-07T07:45:59.233Z,219.38
2022-09-07T07:46:42.718Z,213.75
2022-09-07T07:47:42.625Z,225.00
2022-09-07T07:48:42.629Z,219.38
2022-09-07T07:49:42.625Z,213.75
2022-09-07T07:50:42.615Z,219.38
2022-09-07T07:52:50.563Z,225.00
2022-09-07T07:53:42.920Z,230.63
2022-09-07T07:54:42.606Z,230.63
2022-09-07T07:55:43.246Z,236.25
2022-09-07T07:56:42.599Z,230.63
2022-09-07T07:57:42.594Z,230.63
2022-09-07T07:58:42.595Z,241.88
2022-09-07T07:59:42.586Z,241.88
2022-09-07T08:00:56.930Z,236.25
2022-09-07T08:01:42.659Z,230.63
2022-09-07T08:02:42.651Z,225.00
2022-09-07T08:03:42.574Z,225.00
2022-09-07T08:04:42.579Z,225.00
2022-09-07T08:05:44.824Z,230.63
2022-09-07T08:06:43.072Z,236.25
2022-09-07T08:07:43.501Z,241.88
2022-09-07T08:08:43.147Z,241.88
2022-09-07T08:09:42.564Z,247.50
2022-09-07T08:10:42.557Z,247.50
2022-09-07T08:11:42.551Z,247.50
2022-09-07T08:12:42.556Z,247.50
2022-09-07T08:13:42.548Z,253.13
2022-09-07T08:14:42.545Z,258.75
2022-09-07T08:15:42.539Z,258.75
2022-09-07T08:16:42.564Z,258.75
2022-09-07T08:17:42.534Z,258.75
2022-09-07T08:18:46.941Z,253.13
2022-09-07T08:19:42.527Z,253.13
2022-09-07T08:20:42.526Z,247.50
2022-09-07T08:21:42.535Z,241.88
2022-09-07T08:22:42.519Z,230.63
2022-09-07T08:23:42.543Z,225.00
2022-09-07T08:24:42.513Z,225.00
2022-09-07T08:25:42.508Z,219.38
2022-09-07T08:26:42.505Z,219.38
2022-09-07T08:27:42.503Z,219.38
2022-09-07T08:28:42.503Z,219.38
2022-09-07T08:29:42.496Z,219.38
2022-09-07T08:30:42.493Z,219.38
2022-09-07T08:31:42.578Z,213.75
2022-09-07T08:32:42.491Z,213.75
2022-09-07T08:33:42.486Z,213.75
2022-09-07T08:34:42.483Z,213.75
2022-09-07T08:35:42.481Z,208.13
2022-09-07T08:36:42.481Z,202.50
2022-09-07T08:37:42.472Z,202.50
2022-09-07T08:38:42.471Z,202.50
2022-09-07T08:39:42.631Z,202.50
2022-09-07T08:40:42.468Z,208.13
2022-09-07T08:41:42.459Z,208.13
2022-09-07T08:42:42.468Z,208.13
2022-09-07T08:43:44.819Z,208.13
2022-09-07T08:44:42.455Z,208.13
2022-09-07T08:45:42.452Z,213.75
2022-09-07T08:46:42.489Z,213.75
2022-09-07T08:47:42.449Z,219.38
2022-09-07T08:48:42.464Z,219.38
2022-09-07T08:49:42.442Z,219.38
2022-09-07T08:50:42.440Z,219.38
2022-09-07T08:51:42.432Z,219.38
2022-09-07T08:52:42.443Z,219.38
2022-09-07T08:53:42.426Z,225.00
2022-09-07T08:54:42.429Z,225.00
2022-09-07T08:55:42.429Z,225.00
2022-09-07T08:57:20.493Z,225.00
2022-09-07T08:57:42.421Z,225.00
2022-09-07T08:58:49.244Z,219.38
2022-09-07T08:59:42.418Z,225.00
2022-09-07T09:00:42.419Z,230.63
2022-09-07T09:01:42.843Z,230.63
2022-09-07T09:02:44.383Z,219.38
2022-09-07T09:05:42.477Z,236.25
2022-09-07T09:06:42.477Z,236.25
2022-09-07T09:07:42.399Z,241.88
2022-09-07T09:08:42.399Z,253.13
2022-09-07T09:09:42.397Z,258.75
2022-09-07T09:10:42.391Z,258.75
2022-09-07T09:11:42.388Z,275.63
2022-09-07T09:12:42.395Z,286.88
2022-09-07T09:13:42.391Z,292.50
2022-09-07T09:14:42.385Z,292.50
2022-09-07T09:15:42.416Z,286.88
2022-09-07T09:16:43.025Z,286.88
2022-09-07T09:17:42.390Z,286.88
2022-09-07T09:18:42.377Z,286.88
2022-09-07T09:19:42.376Z,292.50
2022-09-07T09:20:42.373Z,292.50
2022-09-07T09:21:42.370Z,298.13
2022-09-07T09:22:42.368Z,303.75
2022-09-07T09:23:42.381Z,298.13
2022-09-07T09:24:42.362Z,286.88
2022-09-07T09:25:42.363Z,264.38
2022-09-07T09:26:42.401Z,247.50
2022-09-07T09:27:42.359Z,241.88
2022-09-07T09:28:42.354Z,230.63
2022-09-07T09:29:42.372Z,230.63
2022-09-07T09:30:42.359Z,225.00
2022-09-07T09:31:42.447Z,225.00
2022-09-07T09:32:42.354Z,213.75
2022-09-07T09:33:42.350Z,208.13
2022-09-07T09:34:42.344Z,208.13
2022-09-07T09:35:42.343Z,202.50
2022-09-07T09:36:42.347Z,202.50
2022-09-07T09:37:42.343Z,202.50
2022-09-07T09:38:42.341Z,202.50
2022-09-07T09:39:42.409Z,202.50
2022-09-07T09:40:42.339Z,202.50
2022-09-07T09:41:42.335Z,208.13
2022-09-07T09:42:42.343Z,202.50
2022-09-07T09:43:42.332Z,202.50
2022-09-07T09:44:42.333Z,208.13
2022-09-07T09:46:42.390Z,213.75
2022-09-07T09:47:42.453Z,213.75
2022-09-07T09:48:42.323Z,213.75
2022-09-07T09:49:42.334Z,213.75
2022-09-07T09:52:50.895Z,208.13
2022-09-07T09:53:42.321Z,208.13
2022-09-07T09:54:42.316Z,213.75
2022-09-07T09:55:42.314Z,213.75
2022-09-07T09:56:42.316Z,219.38
2022-09-07T09:57:42.492Z,219.38
2022-09-07T10:00:01.774Z,225.00
2022-09-07T10:01:21.272Z,230.63
2022-09-07T10:03:59.501Z,230.63
2022-09-07T10:04:42.304Z,230.63
2022-09-07T10:05:42.302Z,225.00
2022-09-07T10:06:42.295Z,230.63
2022-09-07T10:07:42.300Z,230.63
2022-09-07T10:08:42.294Z,230.63
2022-09-07T10:09:42.294Z,236.25
2022-09-07T10:10:42.299Z,247.50
2022-09-07T10:12:42.290Z,253.13
2022-09-07T10:13:42.290Z,258.75
2022-09-07T10:14:42.290Z,264.38
2022-09-07T10:15:42.365Z,264.38
2022-09-07T10:16:42.287Z,275.63
2022-09-07T10:17:42.289Z,275.63
2022-09-07T10:18:42.291Z,281.25
2022-09-07T10:19:42.297Z,286.88
2022-09-07T10:20:42.294Z,292.50
2022-09-07T10:21:42.286Z,298.13
2022-09-07T10:22:42.285Z,303.75
2022-09-07T10:23:42.283Z,309.38
2022-09-07T10:24:42.289Z,315.00
2022-09-07T10:25:42.279Z,309.38
2022-09-07T10:26:42.281Z,303.75
2022-09-07T10:27:42.279Z,315.00
2022-09-07T10:29:42.279Z,303.75
2022-09-07T10:30:42.332Z,298.13
2022-09-07T10:31:42.353Z,303.75
2022-09-07T10:32:42.277Z,303.75
2022-09-07T10:33:42.333Z,303.75
2022-09-07T10:34:42.270Z,309.38
2022-09-07T10:35:42.275Z,320.63
2022-09-07T10:36:42.273Z,331.88
2022-09-07T10:37:42.279Z,343.13
2022-09-07T10:38:42.272Z,348.75
2022-09-07T10:39:42.319Z,360.00
2022-09-07T10:40:42.274Z,360.00
2022-09-07T10:41:42.274Z,360.00
2022-09-07T10:43:20.749Z,365.63
2022-09-07T10:43:42.276Z,365.63
2022-09-07T10:44:42.275Z,360.00
2022-09-07T10:45:42.271Z,354.38
2022-09-07T10:46:57.975Z,343.13
2022-09-07T10:47:42.273Z,331.88
2022-09-07T10:48:42.271Z,331.88
2022-09-07T10:50:22.085Z,326.25
2022-09-07T10:50:42.284Z,326.25
2022-09-07T10:51:42.289Z,326.25
2022-09-07T10:52:42.274Z,326.25
2022-09-07T10:53:42.836Z,326.25
2022-09-07T10:54:42.281Z,326.25
2022-09-07T10:55:42.271Z,326.25
2022-09-07T10:56:42.273Z,320.63
2022-09-07T10:57:45.671Z,320.63
2022-09-07T10:59:09.127Z,320.63
2022-09-07T11:00:09.124Z,326.25
2022-09-07T11:00:42.268Z,331.88
2022-09-07T11:01:42.315Z,331.88
2022-09-07T11:02:42.500Z,326.25
2022-09-07T11:03:42.549Z,326.25
2022-09-07T11:04:42.273Z,320.63
2022-09-07T11:05:42.272Z,315.00
2022-09-07T11:06:42.286Z,315.00
2022-09-07T11:07:42.270Z,315.00
2022-09-07T11:09:42.271Z,326.25
2022-09-07T11:10:42.272Z,326.25
2022-09-07T11:12:42.285Z,326.25
2022-09-07T11:14:02.143Z,337.50
2022-09-07T11:14:42.273Z,348.75
2022-09-07T11:15:42.307Z,360.00
2022-09-07T11:16:57.784Z,365.63
2022-09-07T11:17:42.282Z,371.25
2022-09-07T11:18:42.275Z,382.50
2022-09-07T11:19:42.272Z,382.50
2022-09-07T11:20:42.272Z,382.50
2022-09-07T11:21:57.732Z,371.25
2022-09-07T11:22:42.278Z,365.63
2022-09-07T11:23:42.279Z,360.00
2022-09-07T11:24:42.277Z,354.38
2022-09-07T11:25:42.274Z,365.63
2022-09-07T11:26:42.275Z,382.50
2022-09-07T11:27:42.273Z,382.50
2022-09-07T11:28:42.279Z,371.25
2022-09-07T11:29:42.278Z,360.00
2022-09-07T11:30:42.332Z,343.13
2022-09-07T11:31:42.359Z,331.88
2022-09-07T11:32:42.286Z,315.00
2022-09-07T11:33:42.474Z,292.50
2022-09-07T11:34:42.280Z,281.25
2022-09-07T11:35:42.277Z,270.00
2022-09-07T11:36:42.282Z,264.38
2022-09-07T11:37:42.282Z,258.75
2022-09-07T11:38:42.278Z,253.13
2022-09-07T11:39:42.345Z,258.75
2022-09-07T11:40:42.283Z,253.13
2022-09-07T11:41:42.278Z,258.75
2022-09-07T11:42:43.872Z,270.00
2022-09-07T11:43:42.325Z,281.25
2022-09-07T11:44:42.307Z,286.88
2022-09-07T11:45:42.282Z,286.88
2022-09-07T11:46:42.355Z,286.88
2022-09-07T11:47:42.282Z,281.25
2022-09-07T11:48:42.285Z,281.25
2022-09-07T11:49:43.126Z,286.88
2022-09-07T11:50:42.288Z,292.50
2022-09-07T11:51:42.288Z,303.75
2022-09-07T11:52:42.296Z,326.25
2022-09-07T11:53:42.287Z,337.50
2022-09-07T11:54:42.288Z,331.88
2022-09-07T11:55:42.289Z,331.88
2022-09-07T11:56:45.682Z,331.88
2022-09-07T11:57:42.291Z,331.88
2022-09-07T11:58:42.289Z,331.88
2022-09-07T11:59:42.293Z,320.63
2022-09-07T12:00:42.292Z,315.00
2022-09-07T12:01:42.297Z,309.38
2022-09-07T12:02:58.816Z,303.75
2022-09-07T12:03:42.352Z,286.88
2022-09-07T12:04:42.361Z,281.25
2022-09-07T12:05:42.297Z,286.88
2022-09-07T12:06:42.297Z,292.50
2022-09-07T12:07:42.300Z,303.75
2022-09-07T12:08:42.305Z,309.38
2022-09-07T12:09:42.316Z,303.75
2022-09-07T12:10:42.301Z,298.13
2022-09-07T12:11:42.301Z,286.88
2022-09-07T12:12:42.302Z,281.25
2022-09-07T12:13:42.304Z,270.00
2022-09-07T12:14:42.303Z,270.00
2022-09-07T12:15:42.373Z,270.00
2022-09-07T12:16:42.312Z,275.63
2022-09-07T12:17:42.305Z,286.88
2022-09-07T12:18:42.347Z,298.13
2022-09-07T12:19:42.310Z,309.38
2022-09-07T12:20:42.317Z,315.00
2022-09-07T12:21:42.310Z,320.63
2022-09-07T12:22:42.313Z,320.63
2022-09-07T12:23:42.314Z,315.00
2022-09-07T12:24:42.316Z,320.63
2022-09-07T12:25:42.391Z,320.63
2022-09-07T12:26:42.328Z,326.25
2022-09-07T12:27:42.323Z,331.88
2022-09-07T12:28:42.376Z,326.25
2022-09-07T12:29:45.612Z,326.25
2022-09-07T12:30:42.347Z,326.25
2022-09-07T12:31:57.288Z,331.88
2022-09-07T12:32:58.730Z,348.75
2022-09-07T12:33:42.325Z,343.13
2022-09-07T12:34:42.328Z,343.13
2022-09-07T12:35:42.323Z,343.13
2022-09-07T12:36:42.330Z,343.13
2022-09-07T12:37:42.383Z,343.13
2022-09-07T12:38:42.340Z,354.38
2022-09-07T12:39:42.368Z,365.63
2022-09-07T12:40:42.338Z,365.63
2022-09-07T12:41:42.338Z,348.75
2022-09-07T12:42:42.335Z,326.25
2022-09-07T12:43:42.334Z,309.38
2022-09-07T12:44:42.339Z,292.50
2022-09-07T12:45:42.472Z,281.25
2022-09-07T12:46:42.365Z,281.25
2022-09-07T12:47:42.342Z,286.88
2022-09-07T12:48:42.346Z,286.88
2022-09-07T12:49:42.340Z,286.88
2022-09-07T12:50:42.520Z,281.25
2022-09-07T12:52:42.350Z,292.50
2022-09-07T12:53:42.351Z,298.13
2022-09-07T12:54:42.356Z,298.13
2022-09-07T12:56:42.753Z,281.25
2022-09-07T12:57:42.358Z,275.63
2022-09-07T12:58:42.377Z,264.38
2022-09-07T12:59:42.358Z,253.13
2022-09-07T13:00:42.365Z,230.63
2022-09-07T13:01:42.500Z,225.00
2022-09-07T13:02:42.458Z,230.63
2022-09-07T13:03:50.287Z,241.88
2022-09-07T13:04:42.364Z,241.88
2022-09-07T13:05:42.368Z,247.50
2022-09-07T13:07:42.369Z,253.13
2022-09-07T13:08:42.372Z,241.88
2022-09-07T13:09:42.403Z,241.88
2022-09-07T13:10:42.382Z,236.25
2022-09-07T13:11:42.386Z,230.63
2022-09-07T13:12:58.099Z,230.63
2022-09-07T13:14:43.786Z,230.63
2022-09-07T13:15:42.456Z,236.25
2022-09-07T13:17:42.382Z,258.75
2022-09-07T13:18:42.399Z,264.38
2022-09-07T13:19:42.395Z,292.50